sensor_id;sensor_type;location;lat;lon;timestamp;P1;durP1;ratioP1;P2;durP2;ratioP2
6665;SDS011;3369;49.906;8.598;2023-09-12T00:01:09;5.97;;;5.40;;
6665;SDS011;3369;49.906;8.598;2023-09-12T00:03:35;8.20;;;5.70;;
6665;SDS011;3369;49.906;8.598;2023-09-12T00:06:01;6.97;;;5.07;;
6665;SDS011;3369;49.906;8.598;2023-09-12T00:08:28;5.40;;;4.73;;
6665;SDS011;3369;49.906;8.598;2023-09-12T00:11:01;5.30;;;4.87;;
6665;SDS011;3369;49.906;8.598;2023-09-12T00:13:27;5.77;;;5.10;;
6665;SDS011;3369;49.906;8.598;2023-09-12T00:15:52;9.40;;;5.60;;
6665;SDS011;3369;49.906;8.598;2023-09-12T00:18:18;6.57;;;5.40;;
6665;SDS011;3369;49.906;8.598;2023-09-12T00:20:43;7.17;;;5.20;;
6665;SDS011;3369;49.906;8.598;2023-09-12T00:23:09;7.20;;;5.87;;
6665;SDS011;3369;49.906;8.598;2023-09-12T00:25:35;6.00;;;5.40;;
6665;SDS011;3369;49.906;8.598;2023-09-12T00:28:00;5.87;;;4.80;;
6665;SDS011;3369;49.906;8.598;2023-09-12T00:30:26;6.57;;;4.97;;
6665;SDS011;3369;49.906;8.598;2023-09-12T00:32:52;5.93;;;5.03;;
6665;SDS011;3369;49.906;8.598;2023-09-12T00:35:17;7.10;;;5.00;;
6665;SDS011;3369;49.906;8.598;2023-09-12T00:37:43;6.77;;;5.30;;
6665;SDS011;3369;49.906;8.598;2023-09-12T00:40:09;8.20;;;5.27;;
6665;SDS011;3369;49.906;8.598;2023-09-12T00:42:35;7.20;;;5.50;;
6665;SDS011;3369;49.906;8.598;2023-09-12T00:45:00;7.80;;;5.03;;
6665;SDS011;3369;49.906;8.598;2023-09-12T00:47:27;6.07;;;5.10;;
6665;SDS011;3369;49.906;8.598;2023-09-12T00:49:53;7.57;;;5.70;;
6665;SDS011;3369;49.906;8.598;2023-09-12T00:52:21;8.37;;;5.87;;
6665;SDS011;3369;49.906;8.598;2023-09-12T00:54:53;8.47;;;5.87;;
6665;SDS011;3369;49.906;8.598;2023-09-12T00:57:19;7.20;;;5.57;;
6665;SDS011;3369;49.906;8.598;2023-09-12T00:59:47;7.63;;;5.53;;
6665;SDS011;3369;49.906;8.598;2023-09-12T01:02:13;6.87;;;5.00;;
6665;SDS011;3369;49.906;8.598;2023-09-12T01:04:39;5.37;;;4.63;;
6665;SDS011;3369;49.906;8.598;2023-09-12T01:07:05;9.00;;;5.50;;
6665;SDS011;3369;49.906;8.598;2023-09-12T01:09:31;6.43;;;4.93;;
6665;SDS011;3369;49.906;8.598;2023-09-12T01:11:58;6.00;;;5.33;;
6665;SDS011;3369;49.906;8.598;2023-09-12T01:14:27;6.97;;;5.30;;
6665;SDS011;3369;49.906;8.598;2023-09-12T01:16:55;6.57;;;5.03;;
6665;SDS011;3369;49.906;8.598;2023-09-12T01:19:22;6.67;;;5.40;;
6665;SDS011;3369;49.906;8.598;2023-09-12T01:27:41;8.00;;;6.00;;
6665;SDS011;3369;49.906;8.598;2023-09-12T01:30:10;6.63;;;5.07;;
6665;SDS011;3369;49.906;8.598;2023-09-12T01:32:42;6.07;;;5.47;;
6665;SDS011;3369;49.906;8.598;2023-09-12T01:35:08;5.40;;;4.60;;
6665;SDS011;3369;49.906;8.598;2023-09-12T01:37:34;7.53;;;5.20;;
6665;SDS011;3369;49.906;8.598;2023-09-12T01:40:00;6.60;;;5.27;;
6665;SDS011;3369;49.906;8.598;2023-09-12T01:42:30;8.97;;;5.33;;
6665;SDS011;3369;49.906;8.598;2023-09-12T01:44:59;7.53;;;5.67;;
6665;SDS011;3369;49.906;8.598;2023-09-12T01:47:26;10.67;;;7.23;;
6665;SDS011;3369;49.906;8.598;2023-09-12T01:49:54;11.77;;;7.17;;
6665;SDS011;3369;49.906;8.598;2023-09-12T01:52:23;7.87;;;6.27;;
6665;SDS011;3369;49.906;8.598;2023-09-12T01:54:50;9.27;;;6.70;;
6665;SDS011;3369;49.906;8.598;2023-09-12T01:57:17;8.10;;;5.87;;
6665;SDS011;3369;49.906;8.598;2023-09-12T01:59:46;6.50;;;5.53;;
6665;SDS011;3369;49.906;8.598;2023-09-12T02:02:15;5.60;;;5.00;;
6665;SDS011;3369;49.906;8.598;2023-09-12T02:04:41;7.40;;;6.53;;
6665;SDS011;3369;49.906;8.598;2023-09-12T02:07:16;8.30;;;5.93;;
6665;SDS011;3369;49.906;8.598;2023-09-12T02:09:41;8.17;;;6.47;;
6665;SDS011;3369;49.906;8.598;2023-09-12T02:12:07;7.47;;;5.67;;
6665;SDS011;3369;49.906;8.598;2023-09-12T02:14:34;6.13;;;5.53;;
6665;SDS011;3369;49.906;8.598;2023-09-12T02:16:59;7.90;;;5.87;;
6665;SDS011;3369;49.906;8.598;2023-09-12T02:19:25;6.17;;;5.40;;
6665;SDS011;3369;49.906;8.598;2023-09-12T02:21:50;5.80;;;5.10;;
6665;SDS011;3369;49.906;8.598;2023-09-12T02:24:16;6.47;;;5.40;;
6665;SDS011;3369;49.906;8.598;2023-09-12T02:26:43;7.57;;;5.67;;
6665;SDS011;3369;49.906;8.598;2023-09-12T02:29:10;5.90;;;5.30;;
6665;SDS011;3369;49.906;8.598;2023-09-12T02:31:36;7.40;;;5.70;;
6665;SDS011;3369;49.906;8.598;2023-09-12T02:34:01;6.20;;;5.07;;
6665;SDS011;3369;49.906;8.598;2023-09-12T02:36:28;5.23;;;4.70;;
6665;SDS011;3369;49.906;8.598;2023-09-12T02:38:54;5.57;;;5.07;;
6665;SDS011;3369;49.906;8.598;2023-09-12T02:41:21;5.10;;;4.60;;
6665;SDS011;3369;49.906;8.598;2023-09-12T02:43:46;5.70;;;4.43;;
6665;SDS011;3369;49.906;8.598;2023-09-12T02:46:12;5.97;;;4.63;;
6665;SDS011;3369;49.906;8.598;2023-09-12T02:48:37;5.23;;;4.20;;
6665;SDS011;3369;49.906;8.598;2023-09-12T02:51:03;5.30;;;4.70;;
6665;SDS011;3369;49.906;8.598;2023-09-12T02:53:29;5.20;;;4.70;;
6665;SDS011;3369;49.906;8.598;2023-09-12T02:55:54;5.17;;;4.77;;
6665;SDS011;3369;49.906;8.598;2023-09-12T02:58:20;6.07;;;5.33;;
6665;SDS011;3369;49.906;8.598;2023-09-12T03:00:46;6.97;;;5.40;;
6665;SDS011;3369;49.906;8.598;2023-09-12T03:03:15;6.23;;;5.33;;
6665;SDS011;3369;49.906;8.598;2023-09-12T03:05:42;6.20;;;5.13;;
6665;SDS011;3369;49.906;8.598;2023-09-12T03:08:07;5.63;;;5.03;;
6665;SDS011;3369;49.906;8.598;2023-09-12T03:10:33;5.60;;;5.07;;
6665;SDS011;3369;49.906;8.598;2023-09-12T03:12:59;6.17;;;5.57;;
6665;SDS011;3369;49.906;8.598;2023-09-12T03:15:24;5.67;;;5.17;;
6665;SDS011;3369;49.906;8.598;2023-09-12T03:17:50;8.27;;;5.77;;
6665;SDS011;3369;49.906;8.598;2023-09-12T03:20:15;6.30;;;5.80;;
6665;SDS011;3369;49.906;8.598;2023-09-12T03:22:41;6.77;;;6.07;;
6665;SDS011;3369;49.906;8.598;2023-09-12T03:25:07;9.97;;;6.40;;
6665;SDS011;3369;49.906;8.598;2023-09-12T03:27:33;6.30;;;5.70;;
6665;SDS011;3369;49.906;8.598;2023-09-12T03:29:58;8.20;;;5.73;;
6665;SDS011;3369;49.906;8.598;2023-09-12T03:32:24;6.70;;;6.10;;
6665;SDS011;3369;49.906;8.598;2023-09-12T03:34:50;8.77;;;6.37;;
6665;SDS011;3369;49.906;8.598;2023-09-12T03:37:15;9.43;;;6.53;;
6665;SDS011;3369;49.906;8.598;2023-09-12T03:39:41;7.90;;;7.10;;
6665;SDS011;3369;49.906;8.598;2023-09-12T03:42:07;9.00;;;6.07;;
6665;SDS011;3369;49.906;8.598;2023-09-12T03:44:32;7.33;;;5.77;;
6665;SDS011;3369;49.906;8.598;2023-09-12T03:46:58;6.23;;;5.57;;
6665;SDS011;3369;49.906;8.598;2023-09-12T03:49:23;6.33;;;5.50;;
6665;SDS011;3369;49.906;8.598;2023-09-12T03:51:49;8.03;;;5.90;;
6665;SDS011;3369;49.906;8.598;2023-09-12T03:54:15;6.93;;;5.90;;
6665;SDS011;3369;49.906;8.598;2023-09-12T03:56:40;6.83;;;6.00;;
6665;SDS011;3369;49.906;8.598;2023-09-12T03:59:06;7.77;;;6.20;;
6665;SDS011;3369;49.906;8.598;2023-09-12T04:01:32;8.83;;;6.23;;
6665;SDS011;3369;49.906;8.598;2023-09-12T04:03:57;9.07;;;6.23;;
6665;SDS011;3369;49.906;8.598;2023-09-12T04:06:23;6.53;;;5.93;;
6665;SDS011;3369;49.906;8.598;2023-09-12T04:08:49;6.03;;;5.50;;
6665;SDS011;3369;49.906;8.598;2023-09-12T04:11:14;6.03;;;5.43;;
6665;SDS011;3369;49.906;8.598;2023-09-12T04:13:40;6.17;;;5.57;;
6665;SDS011;3369;49.906;8.598;2023-09-12T04:16:06;6.13;;;5.53;;
6665;SDS011;3369;49.906;8.598;2023-09-12T04:18:31;6.43;;;5.83;;
6665;SDS011;3369;49.906;8.598;2023-09-12T04:20:57;5.63;;;5.23;;
6665;SDS011;3369;49.906;8.598;2023-09-12T04:23:24;5.33;;;4.87;;
6665;SDS011;3369;49.906;8.598;2023-09-12T04:25:50;5.73;;;5.23;;
6665;SDS011;3369;49.906;8.598;2023-09-12T04:28:16;6.50;;;6.00;;
6665;SDS011;3369;49.906;8.598;2023-09-12T04:30:41;5.87;;;5.27;;
6665;SDS011;3369;49.906;8.598;2023-09-12T04:33:07;5.57;;;5.07;;
6665;SDS011;3369;49.906;8.598;2023-09-12T04:35:34;5.83;;;5.33;;
6665;SDS011;3369;49.906;8.598;2023-09-12T04:38:00;5.53;;;5.03;;
6665;SDS011;3369;49.906;8.598;2023-09-12T04:40:26;6.23;;;5.63;;
6665;SDS011;3369;49.906;8.598;2023-09-12T04:42:51;5.97;;;5.37;;
6665;SDS011;3369;49.906;8.598;2023-09-12T04:45:17;6.53;;;5.80;;
6665;SDS011;3369;49.906;8.598;2023-09-12T04:47:42;6.63;;;5.60;;
6665;SDS011;3369;49.906;8.598;2023-09-12T04:50:08;6.73;;;5.70;;
6665;SDS011;3369;49.906;8.598;2023-09-12T04:52:34;7.33;;;5.90;;
6665;SDS011;3369;49.906;8.598;2023-09-12T04:55:00;5.40;;;4.93;;
6665;SDS011;3369;49.906;8.598;2023-09-12T04:57:26;6.20;;;5.50;;
6665;SDS011;3369;49.906;8.598;2023-09-12T04:59:55;6.80;;;5.40;;
6665;SDS011;3369;49.906;8.598;2023-09-12T05:02:21;5.47;;;4.97;;
6665;SDS011;3369;49.906;8.598;2023-09-12T05:04:47;5.40;;;4.90;;
6665;SDS011;3369;49.906;8.598;2023-09-12T05:07:13;5.43;;;4.93;;
6665;SDS011;3369;49.906;8.598;2023-09-12T05:09:39;5.63;;;5.13;;
6665;SDS011;3369;49.906;8.598;2023-09-12T05:12:05;5.70;;;5.20;;
6665;SDS011;3369;49.906;8.598;2023-09-12T05:14:30;7.47;;;5.20;;
6665;SDS011;3369;49.906;8.598;2023-09-12T05:16:56;6.43;;;5.80;;
6665;SDS011;3369;49.906;8.598;2023-09-12T05:19:23;5.77;;;5.27;;
6665;SDS011;3369;49.906;8.598;2023-09-12T05:21:50;5.57;;;5.03;;
6665;SDS011;3369;49.906;8.598;2023-09-12T05:24:16;5.83;;;5.33;;
6665;SDS011;3369;49.906;8.598;2023-09-12T05:26:43;5.73;;;5.23;;
6665;SDS011;3369;49.906;8.598;2023-09-12T05:29:08;5.07;;;4.67;;
6665;SDS011;3369;49.906;8.598;2023-09-12T05:31:34;6.07;;;4.90;;
6665;SDS011;3369;49.906;8.598;2023-09-12T05:34:00;6.17;;;5.00;;
6665;SDS011;3369;49.906;8.598;2023-09-12T05:36:32;6.23;;;5.30;;
6665;SDS011;3369;49.906;8.598;2023-09-12T05:38:58;5.93;;;5.20;;
6665;SDS011;3369;49.906;8.598;2023-09-12T05:41:23;5.30;;;4.87;;
6665;SDS011;3369;49.906;8.598;2023-09-12T05:43:49;5.37;;;4.87;;
6665;SDS011;3369;49.906;8.598;2023-09-12T05:46:15;7.30;;;5.43;;
6665;SDS011;3369;49.906;8.598;2023-09-12T05:48:41;5.17;;;4.67;;
6665;SDS011;3369;49.906;8.598;2023-09-12T05:51:06;6.20;;;5.60;;
6665;SDS011;3369;49.906;8.598;2023-09-12T05:53:32;5.47;;;5.00;;
6665;SDS011;3369;49.906;8.598;2023-09-12T05:55:58;5.33;;;4.83;;
6665;SDS011;3369;49.906;8.598;2023-09-12T05:58:24;5.67;;;5.10;;
6665;SDS011;3369;49.906;8.598;2023-09-12T06:00:49;5.73;;;5.23;;
6665;SDS011;3369;49.906;8.598;2023-09-12T06:03:15;6.70;;;5.70;;
6665;SDS011;3369;49.906;8.598;2023-09-12T06:05:41;5.73;;;5.27;;
6665;SDS011;3369;49.906;8.598;2023-09-12T06:08:07;6.77;;;5.27;;
6665;SDS011;3369;49.906;8.598;2023-09-12T06:10:32;6.70;;;6.10;;
6665;SDS011;3369;49.906;8.598;2023-09-12T06:12:58;6.00;;;5.50;;
6665;SDS011;3369;49.906;8.598;2023-09-12T06:15:24;6.00;;;5.43;;
6665;SDS011;3369;49.906;8.598;2023-09-12T06:17:50;6.63;;;5.97;;
6665;SDS011;3369;49.906;8.598;2023-09-12T06:20:19;6.40;;;5.80;;
6665;SDS011;3369;49.906;8.598;2023-09-12T06:22:44;6.17;;;5.60;;
6665;SDS011;3369;49.906;8.598;2023-09-12T06:25:10;5.93;;;5.33;;
6665;SDS011;3369;49.906;8.598;2023-09-12T06:27:35;8.27;;;6.27;;
6665;SDS011;3369;49.906;8.598;2023-09-12T06:30:01;6.57;;;5.67;;
6665;SDS011;3369;49.906;8.598;2023-09-12T06:32:27;7.10;;;5.63;;
6665;SDS011;3369;49.906;8.598;2023-09-12T06:34:53;6.27;;;5.67;;
6665;SDS011;3369;49.906;8.598;2023-09-12T06:37:22;6.17;;;5.57;;
6665;SDS011;3369;49.906;8.598;2023-09-12T06:39:53;7.33;;;6.33;;
6665;SDS011;3369;49.906;8.598;2023-09-12T06:42:20;7.10;;;6.50;;
6665;SDS011;3369;49.906;8.598;2023-09-12T06:44:47;7.43;;;6.73;;
6665;SDS011;3369;49.906;8.598;2023-09-12T06:47:15;6.33;;;5.80;;
6665;SDS011;3369;49.906;8.598;2023-09-12T06:49:40;6.47;;;5.80;;
6665;SDS011;3369;49.906;8.598;2023-09-12T06:52:06;6.13;;;5.53;;
6665;SDS011;3369;49.906;8.598;2023-09-12T06:54:32;7.97;;;6.73;;
6665;SDS011;3369;49.906;8.598;2023-09-12T06:56:59;6.90;;;5.80;;
6665;SDS011;3369;49.906;8.598;2023-09-12T06:59:25;6.50;;;5.90;;
6665;SDS011;3369;49.906;8.598;2023-09-12T07:01:51;5.90;;;5.40;;
6665;SDS011;3369;49.906;8.598;2023-09-12T07:04:17;9.27;;;6.70;;
6665;SDS011;3369;49.906;8.598;2023-09-12T07:06:43;10.07;;;6.47;;
6665;SDS011;3369;49.906;8.598;2023-09-12T07:09:08;6.03;;;5.43;;
6665;SDS011;3369;49.906;8.598;2023-09-12T07:11:36;10.33;;;6.70;;
6665;SDS011;3369;49.906;8.598;2023-09-12T07:14:02;7.10;;;6.30;;
6665;SDS011;3369;49.906;8.598;2023-09-12T07:16:28;7.97;;;7.17;;
6665;SDS011;3369;49.906;8.598;2023-09-12T07:18:55;8.27;;;6.77;;
6665;SDS011;3369;49.906;8.598;2023-09-12T07:21:22;9.63;;;6.80;;
6665;SDS011;3369;49.906;8.598;2023-09-12T07:23:48;9.73;;;6.60;;
6665;SDS011;3369;49.906;8.598;2023-09-12T07:26:14;11.87;;;7.53;;
6665;SDS011;3369;49.906;8.598;2023-09-12T07:28:40;13.17;;;8.20;;
6665;SDS011;3369;49.906;8.598;2023-09-12T07:31:06;13.83;;;8.40;;
6665;SDS011;3369;49.906;8.598;2023-09-12T07:33:32;11.10;;;7.97;;
6665;SDS011;3369;49.906;8.598;2023-09-12T07:35:58;12.20;;;7.97;;
6665;SDS011;3369;49.906;8.598;2023-09-12T07:38:24;13.90;;;7.67;;
6665;SDS011;3369;49.906;8.598;2023-09-12T07:40:50;12.50;;;7.70;;
6665;SDS011;3369;49.906;8.598;2023-09-12T07:43:16;11.00;;;7.50;;
6665;SDS011;3369;49.906;8.598;2023-09-12T07:45:42;14.13;;;8.70;;
6665;SDS011;3369;49.906;8.598;2023-09-12T07:48:08;12.17;;;8.40;;
6665;SDS011;3369;49.906;8.598;2023-09-12T07:50:37;11.13;;;7.20;;
6665;SDS011;3369;49.906;8.598;2023-09-12T07:53:04;14.63;;;8.53;;
6665;SDS011;3369;49.906;8.598;2023-09-12T07:55:30;16.57;;;8.27;;
6665;SDS011;3369;49.906;8.598;2023-09-12T07:58:01;16.70;;;8.27;;
6665;SDS011;3369;49.906;8.598;2023-09-12T08:00:27;14.33;;;8.80;;
6665;SDS011;3369;49.906;8.598;2023-09-12T08:02:53;13.63;;;8.37;;
6665;SDS011;3369;49.906;8.598;2023-09-12T08:05:19;9.67;;;7.97;;
6665;SDS011;3369;49.906;8.598;2023-09-12T08:07:44;12.20;;;8.03;;
6665;SDS011;3369;49.906;8.598;2023-09-12T08:10:10;13.90;;;7.87;;
6665;SDS011;3369;49.906;8.598;2023-09-12T08:12:35;12.03;;;8.20;;
6665;SDS011;3369;49.906;8.598;2023-09-12T08:15:03;18.43;;;8.70;;
6665;SDS011;3369;49.906;8.598;2023-09-12T08:17:29;10.75;;;7.82;;
6665;SDS011;3369;49.906;8.598;2023-09-12T08:19:55;11.10;;;7.67;;
6665;SDS011;3369;49.906;8.598;2023-09-12T08:22:20;14.63;;;8.53;;
6665;SDS011;3369;49.906;8.598;2023-09-12T08:24:46;12.70;;;8.43;;
6665;SDS011;3369;49.906;8.598;2023-09-12T08:27:12;11.53;;;8.07;;
6665;SDS011;3369;49.906;8.598;2023-09-12T08:29:38;16.63;;;9.40;;
6665;SDS011;3369;49.906;8.598;2023-09-12T08:32:04;16.30;;;8.73;;
6665;SDS011;3369;49.906;8.598;2023-09-12T08:34:30;12.53;;;8.60;;
6665;SDS011;3369;49.906;8.598;2023-09-12T08:36:55;9.80;;;7.55;;
6665;SDS011;3369;49.906;8.598;2023-09-12T08:39:25;10.13;;;7.18;;
6665;SDS011;3369;49.906;8.598;2023-09-12T08:41:53;17.83;;;8.48;;
6665;SDS011;3369;49.906;8.598;2023-09-12T08:44:19;12.10;;;8.25;;
6665;SDS011;3369;49.906;8.598;2023-09-12T08:46:46;13.35;;;7.72;;
6665;SDS011;3369;49.906;8.598;2023-09-12T08:49:12;16.00;;;8.52;;
6665;SDS011;3369;49.906;8.598;2023-09-12T08:51:38;11.40;;;8.02;;
6665;SDS011;3369;49.906;8.598;2023-09-12T08:54:04;14.60;;;8.48;;
6665;SDS011;3369;49.906;8.598;2023-09-12T08:56:32;20.27;;;9.80;;
6665;SDS011;3369;49.906;8.598;2023-09-12T08:58:59;17.23;;;8.23;;
6665;SDS011;3369;49.906;8.598;2023-09-12T09:01:26;14.65;;;8.32;;
6665;SDS011;3369;49.906;8.598;2023-09-12T09:03:55;13.55;;;8.13;;
6665;SDS011;3369;49.906;8.598;2023-09-12T09:06:21;11.57;;;7.13;;
6665;SDS011;3369;49.906;8.598;2023-09-12T09:08:49;13.25;;;8.07;;
6665;SDS011;3369;49.906;8.598;2023-09-12T09:11:15;13.35;;;8.10;;
6665;SDS011;3369;49.906;8.598;2023-09-12T09:13:42;12.48;;;7.18;;
6665;SDS011;3369;49.906;8.598;2023-09-12T09:16:11;10.77;;;8.00;;
6665;SDS011;3369;49.906;8.598;2023-09-12T09:21:18;14.45;;;6.97;;
6665;SDS011;3369;49.906;8.598;2023-09-12T09:23:45;14.13;;;7.90;;
6665;SDS011;3369;49.906;8.598;2023-09-12T09:26:12;18.00;;;7.80;;
6665;SDS011;3369;49.906;8.598;2023-09-12T09:28:38;15.25;;;7.40;;
6665;SDS011;3369;49.906;8.598;2023-09-12T09:31:10;12.88;;;7.43;;
6665;SDS011;3369;49.906;8.598;2023-09-12T09:33:37;11.05;;;7.70;;
6665;SDS011;3369;49.906;8.598;2023-09-12T09:36:05;11.27;;;7.68;;
6665;SDS011;3369;49.906;8.598;2023-09-12T09:38:31;15.95;;;8.10;;
6665;SDS011;3369;49.906;8.598;2023-09-12T09:41:06;15.00;;;8.70;;
6665;SDS011;3369;49.906;8.598;2023-09-12T09:43:34;14.45;;;8.55;;
6665;SDS011;3369;49.906;8.598;2023-09-12T09:46:14;12.02;;;7.57;;
6665;SDS011;3369;49.906;8.598;2023-09-12T09:48:40;12.88;;;7.90;;
6665;SDS011;3369;49.906;8.598;2023-09-12T09:51:14;14.20;;;7.85;;
6665;SDS011;3369;49.906;8.598;2023-09-12T09:53:40;14.50;;;9.00;;
6665;SDS011;3369;49.906;8.598;2023-09-12T09:56:09;13.73;;;7.45;;
6665;SDS011;3369;49.906;8.598;2023-09-12T09:58:36;9.85;;;7.57;;
6665;SDS011;3369;49.906;8.598;2023-09-12T10:01:12;16.77;;;8.35;;
6665;SDS011;3369;49.906;8.598;2023-09-12T10:03:44;16.75;;;8.15;;
6665;SDS011;3369;49.906;8.598;2023-09-12T10:06:12;13.38;;;7.68;;
6665;SDS011;3369;49.906;8.598;2023-09-12T10:08:39;16.60;;;8.90;;
6665;SDS011;3369;49.906;8.598;2023-09-12T10:11:08;12.35;;;7.35;;
6665;SDS011;3369;49.906;8.598;2023-09-12T10:13:34;16.05;;;8.27;;
6665;SDS011;3369;49.906;8.598;2023-09-12T10:16:02;14.20;;;8.32;;
6665;SDS011;3369;49.906;8.598;2023-09-12T10:18:29;12.95;;;7.32;;
6665;SDS011;3369;49.906;8.598;2023-09-12T10:21:05;12.63;;;8.13;;
6665;SDS011;3369;49.906;8.598;2023-09-12T10:23:41;9.20;;;7.15;;
6665;SDS011;3369;49.906;8.598;2023-09-12T10:26:13;6.70;;;6.07;;
6665;SDS011;3369;49.906;8.598;2023-09-12T10:28:40;13.27;;;7.40;;
6665;SDS011;3369;49.906;8.598;2023-09-12T10:31:07;16.90;;;8.68;;
6665;SDS011;3369;49.906;8.598;2023-09-12T10:33:35;14.85;;;8.18;;
6665;SDS011;3369;49.906;8.598;2023-09-12T10:36:02;13.50;;;8.10;;
6665;SDS011;3369;49.906;8.598;2023-09-12T10:38:29;9.07;;;7.22;;
6665;SDS011;3369;49.906;8.598;2023-09-12T10:41:00;13.02;;;7.10;;
6665;SDS011;3369;49.906;8.598;2023-09-12T10:43:28;9.63;;;6.75;;
6665;SDS011;3369;49.906;8.598;2023-09-12T10:45:54;10.13;;;7.57;;
6665;SDS011;3369;49.906;8.598;2023-09-12T10:48:21;13.77;;;8.05;;
6665;SDS011;3369;49.906;8.598;2023-09-12T10:50:47;12.77;;;7.20;;
6665;SDS011;3369;49.906;8.598;2023-09-12T10:53:14;13.18;;;8.05;;
6665;SDS011;3369;49.906;8.598;2023-09-12T10:55:57;14.85;;;7.35;;
6665;SDS011;3369;49.906;8.598;2023-09-12T10:59:13;13.13;;;7.55;;
6665;SDS011;3369;49.906;8.598;2023-09-12T11:01:35;10.93;;;6.97;;
6665;SDS011;3369;49.906;8.598;2023-09-12T11:04:44;11.13;;;7.00;;
6665;SDS011;3369;49.906;8.598;2023-09-12T11:06:53;10.80;;;7.30;;
6665;SDS011;3369;49.906;8.598;2023-09-12T11:09:23;10.80;;;7.65;;
6665;SDS011;3369;49.906;8.598;2023-09-12T11:11:57;13.52;;;6.88;;
6665;SDS011;3369;49.906;8.598;2023-09-12T11:14:26;21.77;;;8.35;;
6665;SDS011;3369;49.906;8.598;2023-09-12T11:19:49;18.13;;;8.65;;
6665;SDS011;3369;49.906;8.598;2023-09-12T11:22:27;13.98;;;8.98;;
6665;SDS011;3369;49.906;8.598;2023-09-12T11:24:56;9.43;;;7.70;;
6665;SDS011;3369;49.906;8.598;2023-09-12T11:27:23;9.48;;;7.18;;
6665;SDS011;3369;49.906;8.598;2023-09-12T11:29:50;11.52;;;6.95;;
6665;SDS011;3369;49.906;8.598;2023-09-12T11:32:29;10.48;;;7.47;;
6665;SDS011;3369;49.906;8.598;2023-09-12T11:34:56;9.50;;;6.85;;
6665;SDS011;3369;49.906;8.598;2023-09-12T11:37:26;8.57;;;7.10;;
6665;SDS011;3369;49.906;8.598;2023-09-12T11:39:54;8.50;;;6.57;;
6665;SDS011;3369;49.906;8.598;2023-09-12T11:42:20;13.40;;;8.60;;
6665;SDS011;3369;49.906;8.598;2023-09-12T11:44:51;11.00;;;7.57;;
6665;SDS011;3369;49.906;8.598;2023-09-12T11:47:17;11.68;;;7.82;;
6665;SDS011;3369;49.906;8.598;2023-09-12T11:49:42;10.68;;;7.07;;
6665;SDS011;3369;49.906;8.598;2023-09-12T11:52:09;11.82;;;7.20;;
6665;SDS011;3369;49.906;8.598;2023-09-12T11:54:38;17.55;;;8.40;;
6665;SDS011;3369;49.906;8.598;2023-09-12T11:57:05;12.15;;;7.75;;
6665;SDS011;3369;49.906;8.598;2023-09-12T11:59:33;12.27;;;7.75;;
6665;SDS011;3369;49.906;8.598;2023-09-12T12:02:05;10.35;;;7.47;;
6665;SDS011;3369;49.906;8.598;2023-09-12T12:04:34;16.48;;;8.95;;
6665;SDS011;3369;49.906;8.598;2023-09-12T12:07:00;14.48;;;8.32;;
6665;SDS011;3369;49.906;8.598;2023-09-12T12:09:29;13.27;;;7.93;;
6665;SDS011;3369;49.906;8.598;2023-09-12T12:11:55;10.32;;;7.70;;
6665;SDS011;3369;49.906;8.598;2023-09-12T12:14:25;15.57;;;8.20;;
6665;SDS011;3369;49.906;8.598;2023-09-12T12:16:51;11.32;;;8.00;;
6665;SDS011;3369;49.906;8.598;2023-09-12T12:19:17;12.40;;;7.97;;
6665;SDS011;3369;49.906;8.598;2023-09-12T12:21:43;18.38;;;8.95;;
6665;SDS011;3369;49.906;8.598;2023-09-12T12:24:10;8.57;;;7.60;;
6665;SDS011;3369;49.906;8.598;2023-09-12T12:26:42;10.40;;;8.02;;
6665;SDS011;3369;49.906;8.598;2023-09-12T12:29:10;8.73;;;7.00;;
6665;SDS011;3369;49.906;8.598;2023-09-12T12:31:37;9.32;;;7.35;;
6665;SDS011;3369;49.906;8.598;2023-09-12T12:34:04;12.43;;;7.90;;
6665;SDS011;3369;49.906;8.598;2023-09-12T12:36:32;15.95;;;8.85;;
6665;SDS011;3369;49.906;8.598;2023-09-12T12:38:58;9.27;;;7.78;;
6665;SDS011;3369;49.906;8.598;2023-09-12T12:41:26;9.30;;;7.38;;
6665;SDS011;3369;49.906;8.598;2023-09-12T12:43:53;10.63;;;8.00;;
6665;SDS011;3369;49.906;8.598;2023-09-12T12:46:24;8.18;;;7.32;;
6665;SDS011;3369;49.906;8.598;2023-09-12T12:48:50;8.82;;;6.93;;
6665;SDS011;3369;49.906;8.598;2023-09-12T12:51:22;11.13;;;7.22;;
6665;SDS011;3369;49.906;8.598;2023-09-12T12:56:21;10.55;;;7.07;;
6665;SDS011;3369;49.906;8.598;2023-09-12T12:58:56;17.15;;;7.38;;
6665;SDS011;3369;49.906;8.598;2023-09-12T13:01:27;8.60;;;7.20;;
6665;SDS011;3369;49.906;8.598;2023-09-12T13:03:54;11.02;;;7.57;;
6665;SDS011;3369;49.906;8.598;2023-09-12T13:06:21;10.30;;;7.30;;
6665;SDS011;3369;49.906;8.598;2023-09-12T13:08:48;9.57;;;7.93;;
6665;SDS011;3369;49.906;8.598;2023-09-12T13:11:15;10.25;;;7.55;;
6665;SDS011;3369;49.906;8.598;2023-09-12T13:13:41;11.00;;;7.75;;
6665;SDS011;3369;49.906;8.598;2023-09-12T13:16:16;11.15;;;7.00;;
6665;SDS011;3369;49.906;8.598;2023-09-12T13:18:42;8.55;;;7.07;;
6665;SDS011;3369;49.906;8.598;2023-09-12T13:21:08;13.00;;;7.43;;
6665;SDS011;3369;49.906;8.598;2023-09-12T13:23:34;22.73;;;11.25;;
6665;SDS011;3369;49.906;8.598;2023-09-12T13:26:01;10.85;;;7.40;;
6665;SDS011;3369;49.906;8.598;2023-09-12T13:28:28;10.55;;;7.63;;
6665;SDS011;3369;49.906;8.598;2023-09-12T13:30:54;11.40;;;8.05;;
6665;SDS011;3369;49.906;8.598;2023-09-12T13:33:21;11.95;;;7.53;;
6665;SDS011;3369;49.906;8.598;2023-09-12T13:35:48;11.63;;;6.93;;
6665;SDS011;3369;49.906;8.598;2023-09-12T13:38:14;8.90;;;6.68;;
6665;SDS011;3369;49.906;8.598;2023-09-12T13:40:42;8.02;;;6.75;;
6665;SDS011;3369;49.906;8.598;2023-09-12T13:43:08;9.65;;;7.18;;
6665;SDS011;3369;49.906;8.598;2023-09-12T13:45:34;8.82;;;6.80;;
6665;SDS011;3369;49.906;8.598;2023-09-12T13:48:01;7.55;;;6.65;;
6665;SDS011;3369;49.906;8.598;2023-09-12T13:50:28;9.88;;;6.70;;
6665;SDS011;3369;49.906;8.598;2023-09-12T13:52:57;9.48;;;7.57;;
6665;SDS011;3369;49.906;8.598;2023-09-12T13:55:32;12.52;;;6.63;;
6665;SDS011;3369;49.906;8.598;2023-09-12T13:58:00;12.13;;;7.45;;
6665;SDS011;3369;49.906;8.598;2023-09-12T14:00:28;7.45;;;6.68;;
6665;SDS011;3369;49.906;8.598;2023-09-12T14:02:55;9.45;;;6.47;;
6665;SDS011;3369;49.906;8.598;2023-09-12T14:05:20;13.20;;;6.82;;
6665;SDS011;3369;49.906;8.598;2023-09-12T14:07:46;8.52;;;6.53;;
6665;SDS011;3369;49.906;8.598;2023-09-12T14:10:12;12.63;;;7.22;;
6665;SDS011;3369;49.906;8.598;2023-09-12T14:12:38;8.35;;;6.78;;
6665;SDS011;3369;49.906;8.598;2023-09-12T14:15:04;8.32;;;7.03;;
6665;SDS011;3369;49.906;8.598;2023-09-12T14:17:31;9.63;;;6.95;;
6665;SDS011;3369;49.906;8.598;2023-09-12T14:19:57;7.93;;;6.15;;
6665;SDS011;3369;49.906;8.598;2023-09-12T14:22:24;7.20;;;6.30;;
6665;SDS011;3369;49.906;8.598;2023-09-12T14:24:50;7.55;;;6.72;;
6665;SDS011;3369;49.906;8.598;2023-09-12T14:27:16;7.75;;;7.05;;
6665;SDS011;3369;49.906;8.598;2023-09-12T14:29:42;6.75;;;6.15;;
6665;SDS011;3369;49.906;8.598;2023-09-12T14:32:13;7.45;;;5.88;;
6665;SDS011;3369;49.906;8.598;2023-09-12T14:34:39;7.97;;;6.22;;
6665;SDS011;3369;49.906;8.598;2023-09-12T14:37:05;7.20;;;6.50;;
6665;SDS011;3369;49.906;8.598;2023-09-12T14:39:32;8.02;;;6.22;;
6665;SDS011;3369;49.906;8.598;2023-09-12T14:41:58;6.47;;;5.88;;
6665;SDS011;3369;49.906;8.598;2023-09-12T14:44:26;7.85;;;6.20;;
6665;SDS011;3369;49.906;8.598;2023-09-12T14:46:53;8.60;;;6.03;;
6665;SDS011;3369;49.906;8.598;2023-09-12T14:49:19;5.85;;;5.35;;
6665;SDS011;3369;49.906;8.598;2023-09-12T14:51:45;4.95;;;4.55;;
6665;SDS011;3369;49.906;8.598;2023-09-12T14:54:11;6.55;;;5.60;;
6665;SDS011;3369;49.906;8.598;2023-09-12T14:56:37;7.85;;;5.65;;
6665;SDS011;3369;49.906;8.598;2023-09-12T14:59:04;5.70;;;5.20;;
6665;SDS011;3369;49.906;8.598;2023-09-12T15:01:32;5.65;;;5.15;;
6665;SDS011;3369;49.906;8.598;2023-09-12T15:03:59;5.50;;;4.82;;
6665;SDS011;3369;49.906;8.598;2023-09-12T15:06:27;5.95;;;5.30;;
6665;SDS011;3369;49.906;8.598;2023-09-12T15:08:53;5.82;;;5.25;;
6665;SDS011;3369;49.906;8.598;2023-09-12T15:11:19;5.68;;;5.07;;
6665;SDS011;3369;49.906;8.598;2023-09-12T15:13:44;5.32;;;4.88;;
6665;SDS011;3369;49.906;8.598;2023-09-12T15:16:11;5.35;;;4.85;;
6665;SDS011;3369;49.906;8.598;2023-09-12T15:18:37;5.90;;;4.97;;
6665;SDS011;3369;49.906;8.598;2023-09-12T15:21:06;5.35;;;4.85;;
6665;SDS011;3369;49.906;8.598;2023-09-12T15:23:31;5.07;;;4.30;;